sensor_id;sensor_type;location;lat;lon;timestamp;temperature;humidity
55173;DHT22;41061;52.822;6.860;2022-08-07T00:01:09;12.60;99.90
55173;DHT22;41061;52.822;6.860;2022-08-07T00:03:35;12.50;99.90
55173;DHT22;41061;52.822;6.860;2022-08-07T00:06:01;12.50;99.90
55173;DHT22;41061;52.822;6.860;2022-08-07T00:08:26;12.50;99.90
55173;DHT22;41061;52.822;6.860;2022-08-07T00:10:52;12.50;99.90
55173;DHT22;41061;52.822;6.860;2022-08-07T00:13:20;12.50;99.90
55173;DHT22;41061;52.822;6.860;2022-08-07T00:15:46;12.50;99.90
55173;DHT22;41061;52.822;6.860;2022-08-07T00:18:14;12.40;99.90
55173;DHT22;41061;52.822;6.860;2022-08-07T00:20:39;12.30;99.90
55173;DHT22;41061;52.822;6.860;2022-08-07T00:23:05;12.40;99.90
55173;DHT22;41061;52.822;6.860;2022-08-07T00:25:31;12.30;99.90
55173;DHT22;41061;52.822;6.860;2022-08-07T00:27:57;12.40;99.90
55173;DHT22;41061;52.822;6.860;2022-08-07T00:30:23;12.20;99.90
55173;DHT22;41061;52.822;6.860;2022-08-07T00:32:50;12.40;99.90
55173;DHT22;41061;52.822;6.860;2022-08-07T00:35:19;12.20;99.90
55173;DHT22;41061;52.822;6.860;2022-08-07T00:37:45;12.30;99.90
55173;DHT22;41061;52.822;6.860;2022-08-07T00:40:12;12.30;99.90
55173;DHT22;41061;52.822;6.860;2022-08-07T00:42:37;12.20;99.90
55173;DHT22;41061;52.822;6.860;2022-08-07T00:45:04;12.20;99.90
55173;DHT22;41061;52.822;6.860;2022-08-07T00:47:31;12.10;99.90
55173;DHT22;41061;52.822;6.860;2022-08-07T00:49:57;12.00;99.90
55173;DHT22;41061;52.822;6.860;2022-08-07T00:52:22;12.00;99.90
55173;DHT22;41061;52.822;6.860;2022-08-07T00:54:48;12.00;99.90
55173;DHT22;41061;52.822;6.860;2022-08-07T00:57:15;11.90;99.90
55173;DHT22;41061;52.822;6.860;2022-08-07T00:59:41;11.90;99.90
55173;DHT22;41061;52.822;6.860;2022-08-07T01:02:08;11.90;99.90
55173;DHT22;41061;52.822;6.860;2022-08-07T01:04:34;11.90;99.90
55173;DHT22;41061;52.822;6.860;2022-08-07T01:07:01;11.80;99.90
55173;DHT22;41061;52.822;6.860;2022-08-07T01:09:27;11.80;99.90
55173;DHT22;41061;52.822;6.860;2022-08-07T01:11:53;11.90;99.90
55173;DHT22;41061;52.822;6.860;2022-08-07T01:14:20;11.70;99.90
55173;DHT22;41061;52.822;6.860;2022-08-07T01:16:47;11.70;99.90
55173;DHT22;41061;52.822;6.860;2022-08-07T01:19:13;11.70;99.90
55173;DHT22;41061;52.822;6.860;2022-08-07T01:21:39;11.80;99.90
55173;DHT22;41061;52.822;6.860;2022-08-07T01:24:06;11.60;99.90
55173;DHT22;41061;52.822;6.860;2022-08-07T01:31:31;11.50;99.90
55173;DHT22;41061;52.822;6.860;2022-08-07T01:46:15;11.40;99.90
55173;DHT22;41061;52.822;6.860;2022-08-07T01:48:42;11.40;99.90
55173;DHT22;41061;52.822;6.860;2022-08-07T01:51:12;11.40;99.90
55173;DHT22;41061;52.822;6.860;2022-08-07T01:53:43;11.30;99.90
55173;DHT22;41061;52.822;6.860;2022-08-07T01:56:24;11.30;99.90
55173;DHT22;41061;52.822;6.860;2022-08-07T01:59:05;11.30;99.90
55173;DHT22;41061;52.822;6.860;2022-08-07T02:01:35;11.30;99.90
55173;DHT22;41061;52.822;6.860;2022-08-07T02:04:10;11.30;99.90
55173;DHT22;41061;52.822;6.860;2022-08-07T02:06:37;11.40;99.90
55173;DHT22;41061;52.822;6.860;2022-08-07T02:09:09;11.40;99.90
55173;DHT22;41061;52.822;6.860;2022-08-07T02:11:38;11.50;99.90
55173;DHT22;41061;52.822;6.860;2022-08-07T02:14:06;11.60;99.90
55173;DHT22;41061;52.822;6.860;2022-08-07T02:16:35;11.60;99.90
55173;DHT22;41061;52.822;6.860;2022-08-07T02:19:05;11.50;99.90
55173;DHT22;41061;52.822;6.860;2022-08-07T02:21:31;11.60;99.90
55173;DHT22;41061;52.822;6.860;2022-08-07T02:23:58;11.60;99.90
55173;DHT22;41061;52.822;6.860;2022-08-07T02:26:26;11.70;99.90
55173;DHT22;41061;52.822;6.860;2022-08-07T02:28:53;11.60;99.90
55173;DHT22;41061;52.822;6.860;2022-08-07T02:31:21;11.60;99.90
55173;DHT22;41061;52.822;6.860;2022-08-07T02:33:48;11.60;99.90
55173;DHT22;41061;52.822;6.860;2022-08-07T02:36:15;11.60;99.90
55173;DHT22;41061;52.822;6.860;2022-08-07T02:38:42;11.60;99.90
55173;DHT22;41061;52.822;6.860;2022-08-07T02:41:09;11.60;99.90
55173;DHT22;41061;52.822;6.860;2022-08-07T02:43:38;11.50;99.90
55173;DHT22;41061;52.822;6.860;2022-08-07T02:46:06;11.50;99.90
55173;DHT22;41061;52.822;6.860;2022-08-07T02:48:33;11.40;99.90
55173;DHT22;41061;52.822;6.860;2022-08-07T02:51:06;11.50;99.90
55173;DHT22;41061;52.822;6.860;2022-08-07T02:53:34;11.40;99.90
55173;DHT22;41061;52.822;6.860;2022-08-07T02:56:03;11.50;99.90
55173;DHT22;41061;52.822;6.860;2022-08-07T02:58:30;11.30;99.90
55173;DHT22;41061;52.822;6.860;2022-08-07T03:00:56;11.20;99.90
55173;DHT22;41061;52.822;6.860;2022-08-07T03:03:26;11.30;99.90
55173;DHT22;41061;52.822;6.860;2022-08-07T03:05:55;11.30;99.90
55173;DHT22;41061;52.822;6.860;2022-08-07T03:08:21;11.10;99.90
55173;DHT22;41061;52.822;6.860;2022-08-07T03:10:47;11.20;99.90
55173;DHT22;41061;52.822;6.860;2022-08-07T03:13:15;11.10;99.90
55173;DHT22;41061;52.822;6.860;2022-08-07T03:15:42;11.10;99.90
55173;DHT22;41061;52.822;6.860;2022-08-07T03:18:08;11.10;99.90
55173;DHT22;41061;52.822;6.860;2022-08-07T03:20:34;11.10;99.90
55173;DHT22;41061;52.822;6.860;2022-08-07T03:23:01;11.00;99.90
55173;DHT22;41061;52.822;6.860;2022-08-07T03:25:28;11.00;99.90
55173;DHT22;41061;52.822;6.860;2022-08-07T03:27:58;11.10;99.90
55173;DHT22;41061;52.822;6.860;2022-08-07T03:30:25;11.10;99.90
55173;DHT22;41061;52.822;6.860;2022-08-07T03:32:51;11.10;99.90
55173;DHT22;41061;52.822;6.860;2022-08-07T03:35:22;10.80;99.90
55173;DHT22;41061;52.822;6.860;2022-08-07T03:38:06;10.80;99.90
55173;DHT22;41061;52.822;6.860;2022-08-07T03:40:33;10.80;99.90
55173;DHT22;41061;52.822;6.860;2022-08-07T03:42:59;10.90;99.90
55173;DHT22;41061;52.822;6.860;2022-08-07T03:45:27;10.80;99.90
55173;DHT22;41061;52.822;6.860;2022-08-07T03:47:53;10.80;99.90
55173;DHT22;41061;52.822;6.860;2022-08-07T03:50:19;10.90;99.90
55173;DHT22;41061;52.822;6.860;2022-08-07T03:52:47;10.70;99.90
55173;DHT22;41061;52.822;6.860;2022-08-07T03:55:14;10.60;99.90
55173;DHT22;41061;52.822;6.860;2022-08-07T03:57:41;10.60;99.90
55173;DHT22;41061;52.822;6.860;2022-08-07T04:00:08;10.70;99.90
55173;DHT22;41061;52.822;6.860;2022-08-07T04:02:35;10.50;99.90
55173;DHT22;41061;52.822;6.860;2022-08-07T04:05:01;10.40;99.90
55173;DHT22;41061;52.822;6.860;2022-08-07T04:07:27;10.50;99.90
55173;DHT22;41061;52.822;6.860;2022-08-07T04:09:53;10.50;99.90
55173;DHT22;41061;52.822;6.860;2022-08-07T04:12:19;10.50;99.90
55173;DHT22;41061;52.822;6.860;2022-08-07T04:14:46;10.50;99.90
55173;DHT22;41061;52.822;6.860;2022-08-07T04:17:12;10.60;99.90
55173;DHT22;41061;52.822;6.860;2022-08-07T04:19:41;10.40;99.90
55173;DHT22;41061;52.822;6.860;2022-08-07T04:22:07;10.50;99.90
55173;DHT22;41061;52.822;6.860;2022-08-07T04:24:33;10.60;99.90
55173;DHT22;41061;52.822;6.860;2022-08-07T04:27:00;10.60;99.90
55173;DHT22;41061;52.822;6.860;2022-08-07T04:29:27;10.50;99.90
55173;DHT22;41061;52.822;6.860;2022-08-07T04:31:57;10.60;99.90
55173;DHT22;41061;52.822;6.860;2022-08-07T04:34:23;10.60;99.90
55173;DHT22;41061;52.822;6.860;2022-08-07T04:36:49;10.60;99.90
55173;DHT22;41061;52.822;6.860;2022-08-07T04:39:15;10.70;99.90
55173;DHT22;41061;52.822;6.860;2022-08-07T04:41:40;10.70;99.90
55173;DHT22;41061;52.822;6.860;2022-08-07T04:44:07;10.70;99.90
55173;DHT22;41061;52.822;6.860;2022-08-07T04:52:21;10.90;99.90
55173;DHT22;41061;52.822;6.860;2022-08-07T04:54:54;10.90;99.90
55173;DHT22;41061;52.822;6.860;2022-08-07T04:57:57;11.00;99.90
55173;DHT22;41061;52.822;6.860;2022-08-07T05:00:49;11.10;99.90
55173;DHT22;41061;52.822;6.860;2022-08-07T05:03:59;11.20;99.90
55173;DHT22;41061;52.822;6.860;2022-08-07T05:06:55;11.30;99.90
55173;DHT22;41061;52.822;6.860;2022-08-07T05:09:32;11.30;99.90
55173;DHT22;41061;52.822;6.860;2022-08-07T05:12:02;11.40;99.90
55173;DHT22;41061;52.822;6.860;2022-08-07T05:14:43;11.50;99.90
55173;DHT22;41061;52.822;6.860;2022-08-07T05:17:13;11.50;99.90
55173;DHT22;41061;52.822;6.860;2022-08-07T05:19:43;11.60;99.90
55173;DHT22;41061;52.822;6.860;2022-08-07T05:22:12;11.70;99.90
55173;DHT22;41061;52.822;6.860;2022-08-07T05:24:38;11.80;99.90
55173;DHT22;41061;52.822;6.860;2022-08-07T05:27:08;11.90;99.90
55173;DHT22;41061;52.822;6.860;2022-08-07T05:29:35;11.90;99.90
55173;DHT22;41061;52.822;6.860;2022-08-07T05:32:06;12.00;99.90
55173;DHT22;41061;52.822;6.860;2022-08-07T05:34:33;12.10;99.90
55173;DHT22;41061;52.822;6.860;2022-08-07T05:37:00;12.20;99.90
55173;DHT22;41061;52.822;6.860;2022-08-07T05:39:27;12.30;99.90
55173;DHT22;41061;52.822;6.860;2022-08-07T05:41:53;12.40;99.90
55173;DHT22;41061;52.822;6.860;2022-08-07T05:44:20;12.50;99.90
55173;DHT22;41061;52.822;6.860;2022-08-07T05:46:48;12.60;99.90
55173;DHT22;41061;52.822;6.860;2022-08-07T05:49:14;12.80;99.90
55173;DHT22;41061;52.822;6.860;2022-08-07T05:51:45;12.90;99.90
55173;DHT22;41061;52.822;6.860;2022-08-07T05:54:12;13.00;99.90
55173;DHT22;41061;52.822;6.860;2022-08-07T05:56:41;13.10;99.90
55173;DHT22;41061;52.822;6.860;2022-08-07T05:59:13;13.20;99.90
55173;DHT22;41061;52.822;6.860;2022-08-07T06:01:41;13.30;99.90
55173;DHT22;41061;52.822;6.860;2022-08-07T06:04:08;13.40;99.90
55173;DHT22;41061;52.822;6.860;2022-08-07T06:06:37;13.50;99.90
55173;DHT22;41061;52.822;6.860;2022-08-07T06:09:04;13.60;99.90
55173;DHT22;41061;52.822;6.860;2022-08-07T06:11:32;13.80;99.90
55173;DHT22;41061;52.822;6.860;2022-08-07T06:13:58;13.90;99.90
55173;DHT22;41061;52.822;6.860;2022-08-07T06:16:27;14.10;99.90
55173;DHT22;41061;52.822;6.860;2022-08-07T06:18:57;14.20;99.90
55173;DHT22;41061;52.822;6.860;2022-08-07T06:21:23;14.40;99.90
55173;DHT22;41061;52.822;6.860;2022-08-07T06:23:49;14.50;99.90
55173;DHT22;41061;52.822;6.860;2022-08-07T06:26:15;14.70;99.90
55173;DHT22;41061;52.822;6.860;2022-08-07T06:28:52;14.80;99.90
55173;DHT22;41061;52.822;6.860;2022-08-07T06:31:20;15.00;99.90
55173;DHT22;41061;52.822;6.860;2022-08-07T06:33:46;15.10;99.90
55173;DHT22;41061;52.822;6.860;2022-08-07T06:36:12;15.30;99.90
55173;DHT22;41061;52.822;6.860;2022-08-07T06:38:40;15.50;99.90
55173;DHT22;41061;52.822;6.860;2022-08-07T06:41:10;15.60;99.90
55173;DHT22;41061;52.822;6.860;2022-08-07T06:43:37;15.80;99.90
55173;DHT22;41061;52.822;6.860;2022-08-07T06:46:05;15.90;99.90
55173;DHT22;41061;52.822;6.860;2022-08-07T06:48:31;16.10;99.90
55173;DHT22;41061;52.822;6.860;2022-08-07T06:50:59;16.30;99.90
55173;DHT22;41061;52.822;6.860;2022-08-07T06:53:27;16.40;99.90
55173;DHT22;41061;52.822;6.860;2022-08-07T06:55:54;16.60;99.90
55173;DHT22;41061;52.822;6.860;2022-08-07T06:58:20;16.70;99.90
55173;DHT22;41061;52.822;6.860;2022-08-07T07:00:47;16.80;99.90
55173;DHT22;41061;52.822;6.860;2022-08-07T07:03:14;17.00;99.90
55173;DHT22;41061;52.822;6.860;2022-08-07T07:05:40;17.10;99.90
55173;DHT22;41061;52.822;6.860;2022-08-07T07:08:07;17.20;99.90
55173;DHT22;41061;52.822;6.860;2022-08-07T07:10:34;17.30;99.90
55173;DHT22;41061;52.822;6.860;2022-08-07T07:13:18;17.50;99.90
55173;DHT22;41061;52.822;6.860;2022-08-07T07:15:47;17.50;99.90
55173;DHT22;41061;52.822;6.860;2022-08-07T07:18:21;17.70;99.90
55173;DHT22;41061;52.822;6.860;2022-08-07T07:20:58;17.70;99.90
55173;DHT22;41061;52.822;6.860;2022-08-07T07:23:26;17.80;99.90
55173;DHT22;41061;52.822;6.860;2022-08-07T07:25:58;17.90;99.90
55173;DHT22;41061;52.822;6.860;2022-08-07T07:31:05;18.10;99.90
55173;DHT22;41061;52.822;6.860;2022-08-07T07:33:33;18.20;99.90
55173;DHT22;41061;52.822;6.860;2022-08-07T07:36:00;18.30;99.90
55173;DHT22;41061;52.822;6.860;2022-08-07T07:38:27;18.30;99.90
55173;DHT22;41061;52.822;6.860;2022-08-07T07:40:57;18.50;99.90
55173;DHT22;41061;52.822;6.860;2022-08-07T07:43:25;18.60;99.90
55173;DHT22;41061;52.822;6.860;2022-08-07T07:45:51;18.80;99.90
55173;DHT22;41061;52.822;6.860;2022-08-07T07:48:22;18.90;99.90
55173;DHT22;41061;52.822;6.860;2022-08-07T07:50:50;19.00;99.90
55173;DHT22;41061;52.822;6.860;2022-08-07T07:53:19;19.00;99.90
55173;DHT22;41061;52.822;6.860;2022-08-07T07:55:45;19.10;99.90
55173;DHT22;41061;52.822;6.860;2022-08-07T07:58:12;19.20;99.90
55173;DHT22;41061;52.822;6.860;2022-08-07T08:00:40;19.20;99.90
55173;DHT22;41061;52.822;6.860;2022-08-07T08:03:10;19.40;99.90
55173;DHT22;41061;52.822;6.860;2022-08-07T08:05:39;19.50;99.90
55173;DHT22;41061;52.822;6.860;2022-08-07T08:08:05;19.70;99.90
55173;DHT22;41061;52.822;6.860;2022-08-07T08:10:33;19.80;99.90
55173;DHT22;41061;52.822;6.860;2022-08-07T08:12:59;19.90;99.90
55173;DHT22;41061;52.822;6.860;2022-08-07T08:15:29;19.90;99.90
55173;DHT22;41061;52.822;6.860;2022-08-07T08:17:56;20.00;99.90
55173;DHT22;41061;52.822;6.860;2022-08-07T08:20:23;20.00;99.90
55173;DHT22;41061;52.822;6.860;2022-08-07T08:22:51;20.10;99.90
55173;DHT22;41061;52.822;6.860;2022-08-07T08:25:38;20.20;99.90
55173;DHT22;41061;52.822;6.860;2022-08-07T08:28:27;20.30;99.90
55173;DHT22;41061;52.822;6.860;2022-08-07T08:30:56;20.40;99.90
55173;DHT22;41061;52.822;6.860;2022-08-07T08:33:26;20.60;99.90
55173;DHT22;41061;52.822;6.860;2022-08-07T08:35:53;20.70;99.90
55173;DHT22;41061;52.822;6.860;2022-08-07T08:38:23;20.70;99.90
55173;DHT22;41061;52.822;6.860;2022-08-07T08:41:09;20.80;99.90
55173;DHT22;41061;52.822;6.860;2022-08-07T08:46:10;21.00;99.90
55173;DHT22;41061;52.822;6.860;2022-08-07T08:48:58;21.10;99.90
55173;DHT22;41061;52.822;6.860;2022-08-07T08:51:34;21.10;99.90
55173;DHT22;41061;52.822;6.860;2022-08-07T08:56:38;21.20;99.90
55173;DHT22;41061;52.822;6.860;2022-08-07T08:59:26;21.20;99.90
55173;DHT22;41061;52.822;6.860;2022-08-07T09:04:42;21.40;99.90
55173;DHT22;41061;52.822;6.860;2022-08-07T09:10:00;21.50;99.90
55173;DHT22;41061;52.822;6.860;2022-08-07T09:15:53;21.80;99.90
55173;DHT22;41061;52.822;6.860;2022-08-07T09:24:30;22.20;99.90
55173;DHT22;41061;52.822;6.860;2022-08-07T09:27:27;22.10;99.90
55173;DHT22;41061;52.822;6.860;2022-08-07T09:30:04;22.20;99.90
55173;DHT22;41061;52.822;6.860;2022-08-07T09:48:57;22.80;99.90
55173;DHT22;41061;52.822;6.860;2022-08-07T09:54:14;23.10;99.90
55173;DHT22;41061;52.822;6.860;2022-08-07T10:03:24;23.30;99.90
55173;DHT22;41061;52.822;6.860;2022-08-07T10:05:50;23.30;99.90
55173;DHT22;41061;52.822;6.860;2022-08-07T10:22:56;23.10;99.90
55173;DHT22;41061;52.822;6.860;2022-08-07T10:42:54;23.10;99.20
55173;DHT22;41061;52.822;6.860;2022-08-07T11:05:30;24.20;92.70
55173;DHT22;41061;52.822;6.860;2022-08-07T11:08:02;24.30;93.20
55173;DHT22;41061;52.822;6.860;2022-08-07T11:10:50;24.30;92.50
55173;DHT22;41061;52.822;6.860;2022-08-07T11:13:38;24.40;93.20
55173;DHT22;41061;52.822;6.860;2022-08-07T11:16:28;24.50;91.40
55173;DHT22;41061;52.822;6.860;2022-08-07T11:22:01;24.60;92.20
55173;DHT22;41061;52.822;6.860;2022-08-07T11:24:44;24.70;86.80
55173;DHT22;41061;52.822;6.860;2022-08-07T11:27:22;24.80;90.00
55173;DHT22;41061;52.822;6.860;2022-08-07T11:30:12;25.00;88.30
55173;DHT22;41061;52.822;6.860;2022-08-07T11:33:05;25.20;89.30
55173;DHT22;41061;52.822;6.860;2022-08-07T11:35:40;25.30;86.60
55173;DHT22;41061;52.822;6.860;2022-08-07T11:38:48;25.40;84.80
55173;DHT22;41061;52.822;6.860;2022-08-07T11:41:31;25.50;85.50
55173;DHT22;41061;52.822;6.860;2022-08-07T11:44:23;25.60;82.70
55173;DHT22;41061;52.822;6.860;2022-08-07T11:53:08;25.60;78.00
55173;DHT22;41061;52.822;6.860;2022-08-07T12:06:48;26.60;78.90
55173;DHT22;41061;52.822;6.860;2022-08-07T12:09:33;26.80;76.30
55173;DHT22;41061;52.822;6.860;2022-08-07T12:12:12;26.80;75.90
55173;DHT22;41061;52.822;6.860;2022-08-07T12:15:05;26.80;73.00
55173;DHT22;41061;52.822;6.860;2022-08-07T12:18:07;26.80;70.80
55173;DHT22;41061;52.822;6.860;2022-08-07T12:26:20;27.20;71.30
55173;DHT22;41061;52.822;6.860;2022-08-07T12:29:00;27.30;72.00
55173;DHT22;41061;52.822;6.860;2022-08-07T12:31:48;27.40;72.90
55173;DHT22;41061;52.822;6.860;2022-08-07T12:34:17;27.40;70.90
55173;DHT22;41061;52.822;6.860;2022-08-07T12:36:48;27.40;70.40
55173;DHT22;41061;52.822;6.860;2022-08-07T12:39:15;27.40;68.50
55173;DHT22;41061;52.822;6.860;2022-08-07T12:41:44;27.40;68.00
55173;DHT22;41061;52.822;6.860;2022-08-07T12:44:10;27.40;67.00
55173;DHT22;41061;52.822;6.860;2022-08-07T12:49:52;27.40;63.40
55173;DHT22;41061;52.822;6.860;2022-08-07T12:55:12;27.10;62.10
55173;DHT22;41061;52.822;6.860;2022-08-07T12:57:41;27.00;60.80
55173;DHT22;41061;52.822;6.860;2022-08-07T13:00:08;27.00;60.30
55173;DHT22;41061;52.822;6.860;2022-08-07T13:16:14;27.90;59.80
55173;DHT22;41061;52.822;6.860;2022-08-07T13:21:59;28.00;61.00
55173;DHT22;41061;52.822;6.860;2022-08-07T13:24:52;27.90;60.80
55173;DHT22;41061;52.822;6.860;2022-08-07T13:27:25;28.00;62.80
55173;DHT22;41061;52.822;6.860;2022-08-07T13:30:04;28.10;61.70
55173;DHT22;41061;52.822;6.860;2022-08-07T13:32:57;28.20;61.50
55173;DHT22;41061;52.822;6.860;2022-08-07T13:43:12;28.00;60.20
55173;DHT22;41061;52.822;6.860;2022-08-07T13:45:43;28.00;59.60
55173;DHT22;41061;52.822;6.860;2022-08-07T13:48:10;28.00;59.10
55173;DHT22;41061;52.822;6.860;2022-08-07T13:50:40;28.10;58.80
55173;DHT22;41061;52.822;6.860;2022-08-07T13:53:06;28.20;58.00
55173;DHT22;41061;52.822;6.860;2022-08-07T13:55:34;28.30;57.00
55173;DHT22;41061;52.822;6.860;2022-08-07T13:58:06;28.20;57.10
55173;DHT22;41061;52.822;6.860;2022-08-07T14:00:52;28.20;58.90
55173;DHT22;41061;52.822;6.860;2022-08-07T14:03:23;28.30;56.60
55173;DHT22;41061;52.822;6.860;2022-08-07T14:05:51;28.30;56.40
55173;DHT22;41061;52.822;6.860;2022-08-07T14:08:20;28.30;56.70
55173;DHT22;41061;52.822;6.860;2022-08-07T14:10:48;28.30;55.30
55173;DHT22;41061;52.822;6.860;2022-08-07T14:13:17;28.40;54.30
55173;DHT22;41061;52.822;6.860;2022-08-07T14:15:53;28.40;53.50
55173;DHT22;41061;52.822;6.860;2022-08-07T14:18:25;28.40;54.00
55173;DHT22;41061;52.822;6.860;2022-08-07T14:20:58;28.40;52.70
55173;DHT22;41061;52.822;6.860;2022-08-07T14:23:27;28.40;54.30
55173;DHT22;41061;52.822;6.860;2022-08-07T14:26:04;28.50;53.20
55173;DHT22;41061;52.822;6.860;2022-08-07T14:28:35;28.30;51.90
55173;DHT22;41061;52.822;6.860;2022-08-07T14:31:02;28.00;53.30
55173;DHT22;41061;52.822;6.860;2022-08-07T14:33:32;28.00;54.10
55173;DHT22;41061;52.822;6.860;2022-08-07T14:35:59;28.10;52.50
55173;DHT22;41061;52.822;6.860;2022-08-07T14:38:29;28.10;52.50
55173;DHT22;41061;52.822;6.860;2022-08-07T14:41:09;28.10;53.20
55173;DHT22;41061;52.822;6.860;2022-08-07T14:43:39;28.10;52.90
55173;DHT22;41061;52.822;6.860;2022-08-07T14:46:06;28.20;53.60
55173;DHT22;41061;52.822;6.860;2022-08-07T14:48:39;28.10;53.40
55173;DHT22;41061;52.822;6.860;2022-08-07T14:51:08;27.80;54.00
55173;DHT22;41061;52.822;6.860;2022-08-07T14:53:39;27.60;54.30
55173;DHT22;41061;52.822;6.860;2022-08-07T14:56:07;27.20;54.50
55173;DHT22;41061;52.822;6.860;2022-08-07T14:58:36;26.80;54.70
55173;DHT22;41061;52.822;6.860;2022-08-07T15:01:04;26.70;55.80
55173;DHT22;41061;52.822;6.860;2022-08-07T15:03:31;26.50;55.80
55173;DHT22;41061;52.822;6.860;2022-08-07T15:06:00;26.30;56.80
55173;DHT22;41061;52.822;6.860;2022-08-07T15:08:29;26.40;56.80
55173;DHT22;41061;52.822;6.860;2022-08-07T15:11:09;26.40;56.70
55173;DHT22;41061;52.822;6.860;2022-08-07T15:13:51;26.20;56.20
55173;DHT22;41061;52.822;6.860;2022-08-07T15:16:18;26.10;56.30
55173;DHT22;41061;52.822;6.860;2022-08-07T15:18:55;25.80;56.60
55173;DHT22;41061;52.822;6.860;2022-08-07T15:21:26;25.70;57.00
55173;DHT22;41061;52.822;6.860;2022-08-07T15:24:00;25.80;58.60
55173;DHT22;41061;52.822;6.860;2022-08-07T15:26:36;26.10;59.40
55173;DHT22;41061;52.822;6.860;2022-08-07T15:29:04;26.40;58.80
55173;DHT22;41061;52.822;6.860;2022-08-07T15:31:34;26.60;58.00
55173;DHT22;41061;52.822;6.860;2022-08-07T15:34:02;26.80;57.90
55173;DHT22;41061;52.822;6.860;2022-08-07T15:36:29;26.80;57.00
55173;DHT22;41061;52.822;6.860;2022-08-07T15:39:04;26.60;56.20
55173;DHT22;41061;52.822;6.860;2022-08-07T15:41:31;26.30;56.20
55173;DHT22;41061;52.822;6.860;2022-08-07T15:44:06;26.40;57.00
55173;DHT22;41061;52.822;6.860;2022-08-07T15:46:33;26.40;57.30
55173;DHT22;41061;52.822;6.860;2022-08-07T15:49:02;26.30;56.40
55173;DHT22;41061;52.822;6.860;2022-08-07T15:51:28;26.10;56.00
55173;DHT22;41061;52.822;6.860;2022-08-07T15:53:57;25.90;56.60
55173;DHT22;41061;52.822;6.860;2022-08-07T15:56:34;26.00;56.40
55173;DHT22;41061;52.822;6.860;2022-08-07T15:59:03;25.90;56.30
55173;DHT22;41061;52.822;6.860;2022-08-07T16:01:38;25.90;57.10
55173;DHT22;41061;52.822;6.860;2022-08-07T16:04:09;25.90;58.40
55173;DHT22;41061;52.822;6.860;2022-08-07T16:07:10;25.90;58.60
55173;DHT22;41061;52.822;6.860;2022-08-07T16:09:37;25.80;58.90
55173;DHT22;41061;52.822;6.860;2022-08-07T16:12:41;25.40;60.20
55173;DHT22;41061;52.822;6.860;2022-08-07T16:20:52;24.70;62.50
55173;DHT22;41061;52.822;6.860;2022-08-07T16:23:26;24.30;64.00
55173;DHT22;41061;52.822;6.860;2022-08-07T16:31:45;23.80;68.10
55173;DHT22;41061;52.822;6.860;2022-08-07T16:35:06;23.70;68.30
55173;DHT22;41061;52.822;6.860;2022-08-07T16:53:23;23.10;75.00
55173;DHT22;41061;52.822;6.860;2022-08-07T16:56:04;22.90;76.10
55173;DHT22;41061;52.822;6.860;2022-08-07T16:59:00;22.80;77.60
55173;DHT22;41061;52.822;6.860;2022-08-07T17:01:35;22.70;79.20
55173;DHT22;41061;52.822;6.860;2022-08-07T17:04:09;22.70;80.50
55173;DHT22;41061;52.822;6.860;2022-08-07T17:09:56;22.40;81.30
55173;DHT22;41061;52.822;6.860;2022-08-07T17:12:45;22.20;83.30
55173;DHT22;41061;52.822;6.860;2022-08-07T17:18:01;21.90;88.20
55173;DHT22;41061;52.822;6.860;2022-08-07T17:20:36;21.90;90.00
55173;DHT22;41061;52.822;6.860;2022-08-07T17:34:36;21.60;92.50
55173;DHT22;41061;52.822;6.860;2022-08-07T17:37:08;21.70;92.80
55173;DHT22;41061;52.822;6.860;2022-08-07T17:39:43;21.70;93.20
55173;DHT22;41061;52.822;6.860;2022-08-07T17:45:10;21.50;93.90
55173;DHT22;41061;52.822;6.860;2022-08-07T17:47:47;21.50;94.40
55173;DHT22;41061;52.822;6.860;2022-08-07T17:50:17;21.40;94.70
55173;DHT22;41061;52.822;6.860;2022-08-07T17:52:53;21.30;95.20
55173;DHT22;41061;52.822;6.860;2022-08-07T17:59:12;21.20;97.00
55173;DHT22;41061;52.822;6.860;2022-08-07T18:01:43;21.10;97.50
55173;DHT22;41061;52.822;6.860;2022-08-07T18:06:47;21.00;99.90
55173;DHT22;41061;52.822;6.860;2022-08-07T18:09:19;20.90;99.30
55173;DHT22;41061;52.822;6.860;2022-08-07T18:14:57;20.80;99.30
55173;DHT22;41061;52.822;6.860;2022-08-07T18:20:11;20.70;99.90
55173;DHT22;41061;52.822;6.860;2022-08-07T18:23:06;20.70;99.90
55173;DHT22;41061;52.822;6.860;2022-08-07T18:25:34;20.60;99.90
55173;DHT22;41061;52.822;6.860;2022-08-07T18:29:06;20.50;99.90
55173;DHT22;41061;52.822;6.860;2022-08-07T18:31:23;20.50;99.90
55173;DHT22;41061;52.822;6.860;2022-08-07T18:37:18;20.30;99.90
55173;DHT22;41061;52.822;6.860;2022-08-07T18:42:29;20.10;99.90
55173;DHT22;41061;52.822;6.860;2022-08-07T18:48:21;19.90;99.90
55173;DHT22;41061;52.822;6.860;2022-08-07T18:50:43;19.80;99.90
55173;DHT22;41061;52.822;6.860;2022-08-07T18:55:44;19.70;99.90
55173;DHT22;41061;52.822;6.860;2022-08-07T18:58:47;19.60;99.90
55173;DHT22;41061;52.822;6.860;2022-08-07T19:04:15;19.50;99.90
55173;DHT22;41061;52.822;6.860;2022-08-07T19:06:53;19.40;99.90
55173;DHT22;41061;52.822;6.860;2022-08-07T19:12:02;19.20;99.90
55173;DHT22;41061;52.822;6.860;2022-08-07T19:17:30;19.00;99.90
55173;DHT22;41061;52.822;6.860;2022-08-07T19:20:13;18.90;99.90
55173;DHT22;41061;52.822;6.860;2022-08-07T19:23:16;18.80;99.90
55173;DHT22;41061;52.822;6.860;2022-08-07T19:25:49;18.60;99.90
55173;DHT22;41061;52.822;6.860;2022-08-07T19:28:28;18.50;99.90
55173;DHT22;41061;52.822;6.860;2022-08-07T19:31:06;18.50;99.90
55173;DHT22;41061;52.822;6.860;2022-08-07T19:33:35;18.40;99.90
55173;DHT22;41061;52.822;6.860;2022-08-07T19:36:04;18.30;99.90
55173;DHT22;41061;52.822;6.860;2022-08-07T19:38:33;18.30;99.90
55173;DHT22;41061;52.822;6.860;2022-08-07T19:40:59;18.20;99.90
55173;DHT22;41061;52.822;6.860;2022-08-07T19:43:30;18.10;99.90
55173;DHT22;41061;52.822;6.860;2022-08-07T19:45:59;18.10;99.90
55173;DHT22;41061;52.822;6.860;2022-08-07T19:49:18;18.00;99.90
55173;DHT22;41061;52.822;6.860;2022-08-07T19:51:17;17.90;99.90
55173;DHT22;41061;52.822;6.860;2022-08-07T19:53:54;17.90;99.90
55173;DHT22;41061;52.822;6.860;2022-08-07T19:56:21;17.70;99.90
55173;DHT22;41061;52.822;6.860;2022-08-07T19:58:48;17.60;99.90
55173;DHT22;41061;52.822;6.860;2022-08-07T20:01:16;17.60;99.90
55173;DHT22;41061;52.822;6.860;2022-08-07T20:03:44;17.50;99.90
55173;DHT22;41061;52.822;6.860;2022-08-07T20:06:13;17.50;99.90
55173;DHT22;41061;52.822;6.860;2022-08-07T20:08:45;17.40;99.90
55173;DHT22;41061;52.822;6.860;2022-08-07T20:11:15;17.30;99.90
55173;DHT22;41061;52.822;6.860;2022-08-07T20:13:53;17.30;99.90
55173;DHT22;41061;52.822;6.860;2022-08-07T20:16:24;17.30;99.90
55173;DHT22;41061;52.822;6.860;2022-08-07T20:18:51;17.30;99.90